sensor_id;sensor_type;location;lat;lon;timestamp;pressure;altitude;pressure_sealevel;temperature;humidity
42125;BME280;27787;44.594;11.046;2023-04-28T00:01:30;101359.66;;;13.68;73.78
42125;BME280;27787;44.594;11.046;2023-04-28T00:04:14;101366.69;;;13.60;73.63
42125;BME280;27787;44.594;11.046;2023-04-28T00:06:58;101363.09;;;13.47;74.08
42125;BME280;27787;44.594;11.046;2023-04-28T00:09:42;101363.97;;;13.41;74.12
42125;BME280;27787;44.594;11.046;2023-04-28T00:12:26;101360.38;;;13.36;74.32
42125;BME280;27787;44.594;11.046;2023-04-28T00:15:11;101363.00;;;13.30;74.64
42125;BME280;27787;44.594;11.046;2023-04-28T00:17:56;101362.09;;;13.26;75.30
42125;BME280;27787;44.594;11.046;2023-04-28T00:20:40;101369.16;;;13.27;75.45
42125;BME280;27787;44.594;11.046;2023-04-28T00:23:24;101355.00;;;13.25;75.46
42125;BME280;27787;44.594;11.046;2023-04-28T00:26:08;101354.13;;;13.23;75.52
42125;BME280;27787;44.594;11.046;2023-04-28T00:28:52;101358.53;;;13.21;75.46
42125;BME280;27787;44.594;11.046;2023-04-28T00:31:36;101351.41;;;13.17;75.28
42125;BME280;27787;44.594;11.046;2023-04-28T00:34:20;101353.13;;;13.14;75.57
42125;BME280;27787;44.594;11.046;2023-04-28T00:37:05;101340.75;;;13.08;75.51
42125;BME280;27787;44.594;11.046;2023-04-28T00:39:53;101340.72;;;13.05;75.65
42125;BME280;27787;44.594;11.046;2023-04-28T00:42:38;101329.22;;;13.03;75.86
42125;BME280;27787;44.594;11.046;2023-04-28T00:45:22;101330.97;;;13.01;76.17
42125;BME280;27787;44.594;11.046;2023-04-28T00:48:06;101326.53;;;12.98;76.35
42125;BME280;27787;44.594;11.046;2023-04-28T00:50:50;101332.75;;;13.02;76.60
42125;BME280;27787;44.594;11.046;2023-04-28T00:53:35;101328.34;;;13.04;76.48
42125;BME280;27787;44.594;11.046;2023-04-28T00:56:20;101321.28;;;13.03;76.28
42125;BME280;27787;44.594;11.046;2023-04-28T00:59:04;101323.88;;;12.94;76.11
42125;BME280;27787;44.594;11.046;2023-04-28T01:01:48;101326.44;;;12.88;76.34
42125;BME280;27787;44.594;11.046;2023-04-28T01:04:33;101329.97;;;12.84;76.63
42125;BME280;27787;44.594;11.046;2023-04-28T01:07:19;101329.16;;;12.92;76.62
42125;BME280;27787;44.594;11.046;2023-04-28T01:10:04;101323.88;;;12.97;75.83
42125;BME280;27787;44.594;11.046;2023-04-28T01:12:51;101319.47;;;12.96;76.24
42125;BME280;27787;44.594;11.046;2023-04-28T01:15:38;101323.00;;;12.95;76.53
42125;BME280;27787;44.594;11.046;2023-04-28T01:18:22;101317.66;;;12.92;76.34
42125;BME280;27787;44.594;11.046;2023-04-28T01:21:06;101317.63;;;12.89;76.73
42125;BME280;27787;44.594;11.046;2023-04-28T01:23:51;101319.38;;;12.87;77.31
42125;BME280;27787;44.594;11.046;2023-04-28T01:26:35;101318.47;;;12.82;77.62
42125;BME280;27787;44.594;11.046;2023-04-28T01:29:19;101314.94;;;12.77;77.84
42125;BME280;27787;44.594;11.046;2023-04-28T01:32:03;101317.50;;;12.72;77.96
42125;BME280;27787;44.594;11.046;2023-04-28T01:34:48;101320.13;;;12.66;78.11
42125;BME280;27787;44.594;11.046;2023-04-28T01:37:32;101320.94;;;12.59;78.86
42125;BME280;27787;44.594;11.046;2023-04-28T01:40:18;101325.34;;;12.54;79.49
42125;BME280;27787;44.594;11.046;2023-04-28T01:43:02;101331.50;;;12.54;79.57
42125;BME280;27787;44.594;11.046;2023-04-28T01:45:47;101335.06;;;12.55;79.44
42125;BME280;27787;44.594;11.046;2023-04-28T01:48:32;101345.63;;;12.50;79.67
42125;BME280;27787;44.594;11.046;2023-04-28T01:51:15;101347.34;;;12.48;79.84
42125;BME280;27787;44.594;11.046;2023-04-28T01:54:00;101350.84;;;12.46;79.98
42125;BME280;27787;44.594;11.046;2023-04-28T01:56:44;101350.72;;;12.33;80.85
42125;BME280;27787;44.594;11.046;2023-04-28T01:59:30;101367.38;;;12.23;81.44
42125;BME280;27787;44.594;11.046;2023-04-28T02:02:14;101368.13;;;12.10;81.91
42125;BME280;27787;44.594;11.046;2023-04-28T02:05:00;101363.56;;;11.97;82.06
42125;BME280;27787;44.594;11.046;2023-04-28T02:07:43;101370.47;;;11.84;82.30
42125;BME280;27787;44.594;11.046;2023-04-28T02:10:28;101372.97;;;11.72;82.97
42125;BME280;27787;44.594;11.046;2023-04-28T02:13:12;101380.78;;;11.64;83.58
42125;BME280;27787;44.594;11.046;2023-04-28T02:15:59;101385.09;;;11.58;84.03
42125;BME280;27787;44.594;11.046;2023-04-28T02:18:44;101378.94;;;11.57;84.38
42125;BME280;27787;44.594;11.046;2023-04-28T02:21:28;101380.69;;;11.57;84.01
42125;BME280;27787;44.594;11.046;2023-04-28T02:24:13;101381.53;;;11.54;85.21
42125;BME280;27787;44.594;11.046;2023-04-28T02:26:58;101373.47;;;11.45;86.62
42125;BME280;27787;44.594;11.046;2023-04-28T02:29:45;101371.66;;;11.41;87.66
42125;BME280;27787;44.594;11.046;2023-04-28T02:32:29;101373.38;;;11.37;89.27
42125;BME280;27787;44.594;11.046;2023-04-28T02:35:14;101375.19;;;11.41;89.85
42125;BME280;27787;44.594;11.046;2023-04-28T02:37:59;101364.69;;;11.46;89.89
42125;BME280;27787;44.594;11.046;2023-04-28T02:40:43;101370.25;;;11.67;89.10
42125;BME280;27787;44.594;11.046;2023-04-28T02:43:27;101369.66;;;11.88;88.13
42125;BME280;27787;44.594;11.046;2023-04-28T02:46:12;101368.09;;;12.05;87.92
42125;BME280;27787;44.594;11.046;2023-04-28T02:48:56;101353.25;;;12.23;87.60
42125;BME280;27787;44.594;11.046;2023-04-28T02:51:40;101348.94;;;12.28;86.58
42125;BME280;27787;44.594;11.046;2023-04-28T02:54:24;101343.59;;;12.25;86.08
42125;BME280;27787;44.594;11.046;2023-04-28T02:57:13;101346.19;;;12.19;86.22
42125;BME280;27787;44.594;11.046;2023-04-28T02:59:57;101352.25;;;12.08;85.48
42125;BME280;27787;44.594;11.046;2023-04-28T03:02:45;101346.00;;;12.02;85.17
42125;BME280;27787;44.594;11.046;2023-04-28T03:05:29;101356.50;;;11.96;85.38
42125;BME280;27787;44.594;11.046;2023-04-28T03:08:13;101356.47;;;11.90;85.04
42125;BME280;27787;44.594;11.046;2023-04-28T03:10:57;101351.06;;;11.84;85.04
42125;BME280;27787;44.594;11.046;2023-04-28T03:13:41;101351.97;;;11.84;84.76
42125;BME280;27787;44.594;11.046;2023-04-28T03:16:26;101348.38;;;11.79;84.75
42125;BME280;27787;44.594;11.046;2023-04-28T03:19:10;101353.78;;;11.85;83.84
42125;BME280;27787;44.594;11.046;2023-04-28T03:21:54;101360.00;;;11.93;82.53
42125;BME280;27787;44.594;11.046;2023-04-28T03:24:38;101366.19;;;11.92;81.25
42125;BME280;27787;44.594;11.046;2023-04-28T03:27:23;101363.41;;;11.83;81.69
42125;BME280;27787;44.594;11.046;2023-04-28T03:30:10;101373.97;;;11.80;82.45
42125;BME280;27787;44.594;11.046;2023-04-28T03:32:55;101374.84;;;11.79;82.34
42125;BME280;27787;44.594;11.046;2023-04-28T03:35:39;101382.72;;;11.76;82.52
42125;BME280;27787;44.594;11.046;2023-04-28T03:38:24;101376.44;;;11.71;82.67
42125;BME280;27787;44.594;11.046;2023-04-28T03:41:08;101374.66;;;11.67;83.34
42125;BME280;27787;44.594;11.046;2023-04-28T03:44:01;101381.69;;;11.65;84.45
42125;BME280;27787;44.594;11.046;2023-04-28T03:46:51;101380.75;;;11.60;85.19
42125;BME280;27787;44.594;11.046;2023-04-28T03:49:35;101380.63;;;11.50;85.81
42125;BME280;27787;44.594;11.046;2023-04-28T03:52:20;101381.38;;;11.42;85.97
42125;BME280;27787;44.594;11.046;2023-04-28T03:55:05;101376.94;;;11.41;86.52
42125;BME280;27787;44.594;11.046;2023-04-28T03:57:49;101378.69;;;11.39;86.75
42125;BME280;27787;44.594;11.046;2023-04-28T04:00:35;101363.72;;;11.39;86.95
42125;BME280;27787;44.594;11.046;2023-04-28T04:03:19;101366.38;;;11.41;87.58
42125;BME280;27787;44.594;11.046;2023-04-28T04:06:05;101361.09;;;11.42;87.53
42125;BME280;27787;44.594;11.046;2023-04-28T04:08:50;101363.78;;;11.45;87.35
42125;BME280;27787;44.594;11.046;2023-04-28T04:11:35;101370.81;;;11.43;86.49
42125;BME280;27787;44.594;11.046;2023-04-28T04:14:19;101374.31;;;11.42;86.90
42125;BME280;27787;44.594;11.046;2023-04-28T04:17:04;101369.03;;;11.42;86.83
42125;BME280;27787;44.594;11.046;2023-04-28T04:19:49;101369.88;;;11.40;86.48
42125;BME280;27787;44.594;11.046;2023-04-28T04:22:33;101368.09;;;11.37;86.77
42125;BME280;27787;44.594;11.046;2023-04-28T04:25:17;101371.59;;;11.35;87.02
42125;BME280;27787;44.594;11.046;2023-04-28T04:28:05;101365.41;;;11.34;87.35
42125;BME280;27787;44.594;11.046;2023-04-28T04:30:50;101362.78;;;11.36;87.00
42125;BME280;27787;44.594;11.046;2023-04-28T04:33:34;101366.31;;;11.36;86.66
42125;BME280;27787;44.594;11.046;2023-04-28T04:36:20;101360.13;;;11.34;86.42
42125;BME280;27787;44.594;11.046;2023-04-28T04:39:05;101363.69;;;11.36;86.98
42125;BME280;27787;44.594;11.046;2023-04-28T04:41:49;101368.09;;;11.37;86.68
42125;BME280;27787;44.594;11.046;2023-04-28T04:44:49;101381.44;;;11.46;86.58
42125;BME280;27787;44.594;11.046;2023-04-28T04:47:44;101385.03;;;11.53;85.59
42125;BME280;27787;44.594;11.046;2023-04-28T04:50:28;101392.16;;;11.57;85.63
42125;BME280;27787;44.594;11.046;2023-04-28T04:53:13;101385.91;;;11.52;85.51
42125;BME280;27787;44.594;11.046;2023-04-28T04:55:57;101391.19;;;11.50;85.63
42125;BME280;27787;44.594;11.046;2023-04-28T04:58:42;101401.72;;;11.47;85.81
42125;BME280;27787;44.594;11.046;2023-04-28T05:01:50;101407.03;;;11.49;86.96
42125;BME280;27787;44.594;11.046;2023-04-28T05:04:34;101405.28;;;11.51;86.58
42125;BME280;27787;44.594;11.046;2023-04-28T05:07:19;101396.47;;;11.50;86.33
42125;BME280;27787;44.594;11.046;2023-04-28T05:10:04;101392.97;;;11.51;86.27
42125;BME280;27787;44.594;11.046;2023-04-28T05:12:50;101395.59;;;11.51;86.78
42125;BME280;27787;44.594;11.046;2023-04-28T05:15:35;101401.81;;;11.53;86.89
42125;BME280;27787;44.594;11.046;2023-04-28T05:18:52;101396.56;;;11.58;86.15
42125;BME280;27787;44.594;11.046;2023-04-28T05:21:36;101408.97;;;11.61;86.10
42125;BME280;27787;44.594;11.046;2023-04-28T05:24:23;101409.88;;;11.63;85.97
42125;BME280;27787;44.594;11.046;2023-04-28T05:27:09;101416.13;;;11.71;85.42
42125;BME280;27787;44.594;11.046;2023-04-28T05:29:53;101411.88;;;11.79;85.23
42125;BME280;27787;44.594;11.046;2023-04-28T05:32:37;101413.75;;;11.88;85.04
42125;BME280;27787;44.594;11.046;2023-04-28T05:35:22;101423.50;;;11.93;85.22
42125;BME280;27787;44.594;11.046;2023-04-28T05:38:06;101420.06;;;11.99;84.78
42125;BME280;27787;44.594;11.046;2023-04-28T05:40:51;101416.59;;;12.04;85.36
42125;BME280;27787;44.594;11.046;2023-04-28T05:43:35;101424.56;;;12.09;84.92
42125;BME280;27787;44.594;11.046;2023-04-28T05:46:20;101421.94;;;12.10;85.13
42125;BME280;27787;44.594;11.046;2023-04-28T05:49:04;101421.91;;;12.07;84.81
42125;BME280;27787;44.594;11.046;2023-04-28T05:51:52;101425.38;;;11.99;85.63
42125;BME280;27787;44.594;11.046;2023-04-28T05:54:37;101423.53;;;11.96;86.09
42125;BME280;27787;44.594;11.046;2023-04-28T05:57:21;101418.25;;;11.96;86.00
42125;BME280;27787;44.594;11.046;2023-04-28T06:00:06;101424.41;;;11.95;86.38
42125;BME280;27787;44.594;11.046;2023-04-28T06:02:56;101416.50;;;11.97;86.99
42125;BME280;27787;44.594;11.046;2023-04-28T06:05:40;101418.38;;;12.05;87.61
42125;BME280;27787;44.594;11.046;2023-04-28T06:08:25;101417.63;;;12.19;87.24
42125;BME280;27787;44.594;11.046;2023-04-28T06:11:09;101420.41;;;12.28;86.67
42125;BME280;27787;44.594;11.046;2023-04-28T06:13:53;101407.22;;;12.34;86.34
42125;BME280;27787;44.594;11.046;2023-04-28T06:16:37;101402.00;;;12.42;86.59
42125;BME280;27787;44.594;11.046;2023-04-28T06:19:22;101407.31;;;12.45;86.10
42125;BME280;27787;44.594;11.046;2023-04-28T06:22:07;101410.00;;;12.48;85.98
42125;BME280;27787;44.594;11.046;2023-04-28T06:24:53;101407.41;;;12.51;85.77
42125;BME280;27787;44.594;11.046;2023-04-28T06:27:44;101410.09;;;12.55;85.14
42125;BME280;27787;44.594;11.046;2023-04-28T06:30:29;101411.88;;;12.59;85.42
42125;BME280;27787;44.594;11.046;2023-04-28T06:33:13;101418.13;;;12.66;85.47
42125;BME280;27787;44.594;11.046;2023-04-28T06:35:57;101410.22;;;12.72;85.27
42125;BME280;27787;44.594;11.046;2023-04-28T06:38:41;101420.94;;;12.86;85.06
42125;BME280;27787;44.594;11.046;2023-04-28T06:41:27;101415.66;;;12.89;84.28
42125;BME280;27787;44.594;11.046;2023-04-28T06:44:13;101420.16;;;12.96;84.29
42125;BME280;27787;44.594;11.046;2023-04-28T06:46:58;101421.06;;;12.99;83.29
42125;BME280;27787;44.594;11.046;2023-04-28T06:49:43;101412.31;;;13.08;83.39
42125;BME280;27787;44.594;11.046;2023-04-28T06:52:28;101412.31;;;13.11;83.34
42125;BME280;27787;44.594;11.046;2023-04-28T06:55:16;101413.16;;;13.04;83.77
42125;BME280;27787;44.594;11.046;2023-04-28T06:58:01;101422.91;;;13.07;83.92
42125;BME280;27787;44.594;11.046;2023-04-28T07:00:45;101424.66;;;13.06;85.94
42125;BME280;27787;44.594;11.046;2023-04-28T07:03:30;101419.38;;;13.08;87.55
42125;BME280;27787;44.594;11.046;2023-04-28T07:06:14;101406.13;;;13.09;87.81
42125;BME280;27787;44.594;11.046;2023-04-28T07:08:59;101416.72;;;13.06;88.38
42125;BME280;27787;44.594;11.046;2023-04-28T07:11:44;101411.41;;;13.08;89.13
42125;BME280;27787;44.594;11.046;2023-04-28T07:14:28;101408.78;;;13.08;89.68
42125;BME280;27787;44.594;11.046;2023-04-28T07:17:13;101415.81;;;13.03;90.79
42125;BME280;27787;44.594;11.046;2023-04-28T07:19:57;101407.00;;;13.05;90.71
42125;BME280;27787;44.594;11.046;2023-04-28T07:22:41;101409.56;;;12.99;91.02
42125;BME280;27787;44.594;11.046;2023-04-28T07:25:26;101416.75;;;13.12;90.61
42125;BME280;27787;44.594;11.046;2023-04-28T07:28:10;101404.34;;;13.05;90.83
42125;BME280;27787;44.594;11.046;2023-04-28T07:30:54;101407.03;;;13.11;92.88
42125;BME280;27787;44.594;11.046;2023-04-28T07:33:39;101421.28;;;13.22;93.12
42125;BME280;27787;44.594;11.046;2023-04-28T07:36:23;101417.72;;;13.20;93.47
42125;BME280;27787;44.594;11.046;2023-04-28T07:39:07;101415.97;;;13.22;93.15
42125;BME280;27787;44.594;11.046;2023-04-28T07:41:52;101406.28;;;13.27;93.21
42125;BME280;27787;44.594;11.046;2023-04-28T07:44:36;101414.28;;;13.31;93.82
42125;BME280;27787;44.594;11.046;2023-04-28T07:47:21;101414.28;;;13.35;93.92
42125;BME280;27787;44.594;11.046;2023-04-28T07:50:05;101420.53;;;13.43;94.20
42125;BME280;27787;44.594;11.046;2023-04-28T07:52:50;101411.78;;;13.55;93.99
42125;BME280;27787;44.594;11.046;2023-04-28T07:55:34;101408.28;;;13.65;91.50
42125;BME280;27787;44.594;11.046;2023-04-28T07:58:19;101405.66;;;13.76;91.96
42125;BME280;27787;44.594;11.046;2023-04-28T08:01:03;101409.22;;;13.76;91.11
42125;BME280;27787;44.594;11.046;2023-04-28T08:03:48;101416.28;;;13.77;90.58
42125;BME280;27787;44.594;11.046;2023-04-28T08:06:32;101420.75;;;13.84;91.01
42125;BME280;27787;44.594;11.046;2023-04-28T08:09:16;101413.75;;;14.00;91.27
42125;BME280;27787;44.594;11.046;2023-04-28T08:12:01;101419.09;;;14.09;91.55
42125;BME280;27787;44.594;11.046;2023-04-28T08:14:45;101424.41;;;14.14;91.68
42125;BME280;27787;44.594;11.046;2023-04-28T08:17:30;101435.06;;;14.23;91.04
42125;BME280;27787;44.594;11.046;2023-04-28T08:20:14;101429.75;;;14.31;89.54
42125;BME280;27787;44.594;11.046;2023-04-28T08:22:58;101421.81;;;14.35;90.03
42125;BME280;27787;44.594;11.046;2023-04-28T08:25:42;101419.19;;;14.44;89.49
42125;BME280;27787;44.594;11.046;2023-04-28T08:28:26;101412.13;;;14.57;89.42
42125;BME280;27787;44.594;11.046;2023-04-28T08:31:11;101409.50;;;14.69;89.53
42125;BME280;27787;44.594;11.046;2023-04-28T08:33:55;101413.97;;;14.72;88.02
42125;BME280;27787;44.594;11.046;2023-04-28T08:36:40;101404.19;;;14.79;87.75
42125;BME280;27787;44.594;11.046;2023-04-28T08:39:24;101394.47;;;14.87;88.66
42125;BME280;27787;44.594;11.046;2023-04-28T08:42:09;101405.06;;;14.96;87.91
42125;BME280;27787;44.594;11.046;2023-04-28T08:44:55;101398.00;;;14.99;86.64
42125;BME280;27787;44.594;11.046;2023-04-28T08:47:42;101396.22;;;15.01;84.71
42125;BME280;27787;44.594;11.046;2023-04-28T08:50:29;101398.88;;;15.12;84.79
42125;BME280;27787;44.594;11.046;2023-04-28T08:53:15;101397.97;;;15.18;84.77
42125;BME280;27787;44.594;11.046;2023-04-28T08:56:05;101394.41;;;15.23;85.22
42125;BME280;27787;44.594;11.046;2023-04-28T08:58:51;101394.41;;;15.28;84.81
42125;BME280;27787;44.594;11.046;2023-04-28T09:01:36;101396.19;;;15.27;83.83
42125;BME280;27787;44.594;11.046;2023-04-28T09:04:20;101406.81;;;15.32;83.93
42125;BME280;27787;44.594;11.046;2023-04-28T09:07:10;101403.25;;;15.41;84.79
42125;BME280;27787;44.594;11.046;2023-04-28T09:10:14;101410.34;;;15.46;85.33
42125;BME280;27787;44.594;11.046;2023-04-28T09:12:58;101405.00;;;15.49;85.51
42125;BME280;27787;44.594;11.046;2023-04-28T09:15:43;101395.25;;;15.53;85.97
42125;BME280;27787;44.594;11.046;2023-04-28T09:18:29;101395.25;;;15.60;86.36
42125;BME280;27787;44.594;11.046;2023-04-28T09:21:15;101396.13;;;15.69;84.36
42125;BME280;27787;44.594;11.046;2023-04-28T09:24:00;101398.75;;;15.79;84.26
42125;BME280;27787;44.594;11.046;2023-04-28T09:26:48;101395.16;;;15.86;83.94
42125;BME280;27787;44.594;11.046;2023-04-28T09:29:33;101395.13;;;15.94;83.70
42125;BME280;27787;44.594;11.046;2023-04-28T09:32:20;101391.53;;;16.01;83.13
42125;BME280;27787;44.594;11.046;2023-04-28T09:35:05;101380.00;;;16.05;82.98
42125;BME280;27787;44.594;11.046;2023-04-28T09:37:57;101371.94;;;16.13;83.10
42125;BME280;27787;44.594;11.046;2023-04-28T09:41:01;101362.16;;;16.19;83.05
42125;BME280;27787;44.594;11.046;2023-04-28T09:43:45;101365.66;;;16.29;82.91
42125;BME280;27787;44.594;11.046;2023-04-28T09:46:29;101372.69;;;16.38;82.46
42125;BME280;27787;44.594;11.046;2023-04-28T09:49:13;101372.63;;;16.47;82.36
42125;BME280;27787;44.594;11.046;2023-04-28T09:52:11;101377.03;;;16.54;81.48
42125;BME280;27787;44.594;11.046;2023-04-28T09:54:56;101376.03;;;16.64;79.66
42125;BME280;27787;44.594;11.046;2023-04-28T09:57:43;101384.03;;;16.72;79.11
42125;BME280;27787;44.594;11.046;2023-04-28T10:00:28;101380.44;;;16.76;78.91
42125;BME280;27787;44.594;11.046;2023-04-28T10:03:14;101382.13;;;16.86;79.10
42125;BME280;27787;44.594;11.046;2023-04-28T10:05:58;101375.84;;;16.90;79.33
42125;BME280;27787;44.594;11.046;2023-04-28T10:08:43;101366.94;;;16.96;80.39
42125;BME280;27787;44.594;11.046;2023-04-28T10:11:32;101365.03;;;17.05;80.90
42125;BME280;27787;44.594;11.046;2023-04-28T10:14:17;101364.06;;;17.14;81.28
42125;BME280;27787;44.594;11.046;2023-04-28T10:17:03;101354.13;;;17.30;82.22
42125;BME280;27787;44.594;11.046;2023-04-28T10:19:49;101359.38;;;17.39;82.41
42125;BME280;27787;44.594;11.046;2023-04-28T10:23:00;101350.44;;;17.42;83.78
42125;BME280;27787;44.594;11.046;2023-04-28T10:25:53;101348.53;;;17.53;83.13
42125;BME280;27787;44.594;11.046;2023-04-28T10:28:45;101328.00;;;17.59;81.71
42125;BME280;27787;44.594;11.046;2023-04-28T10:31:30;101330.69;;;17.58;82.07
42125;BME280;27787;44.594;11.046;2023-04-28T10:34:21;101328.03;;;17.58;82.32
42125;BME280;27787;44.594;11.046;2023-04-28T10:37:05;101328.78;;;17.66;82.21
42125;BME280;27787;44.594;11.046;2023-04-28T10:46:09;101312.34;;;18.00;77.26
42125;BME280;27787;44.594;11.046;2023-04-28T10:48:54;101311.28;;;18.11;76.86
42125;BME280;27787;44.594;11.046;2023-04-28T10:51:39;101308.34;;;18.28;74.27
42125;BME280;27787;44.594;11.046;2023-04-28T10:54:23;101309.31;;;18.24;73.75
42125;BME280;27787;44.594;11.046;2023-04-28T10:57:16;101304.72;;;18.32;74.93
42125;BME280;27787;44.594;11.046;2023-04-28T11:00:28;101297.53;;;18.37;74.17
42125;BME280;27787;44.594;11.046;2023-04-28T11:06:33;101286.41;;;18.62;73.38
42125;BME280;27787;44.594;11.046;2023-04-28T11:12:04;101284.03;;;18.96;71.90
42125;BME280;27787;44.594;11.046;2023-04-28T11:14:49;101279.59;;;18.95;67.83
42125;BME280;27787;44.594;11.046;2023-04-28T11:17:39;101277.78;;;18.97;69.61
42125;BME280;27787;44.594;11.046;2023-04-28T11:20:25;101276.81;;;18.99;71.33
42125;BME280;27787;44.594;11.046;2023-04-28T11:23:10;101280.38;;;19.01;72.47
42125;BME280;27787;44.594;11.046;2023-04-28T11:25:55;101273.03;;;19.11;72.66
42125;BME280;27787;44.594;11.046;2023-04-28T11:28:50;101269.41;;;19.13;72.58
42125;BME280;27787;44.594;11.046;2023-04-28T11:31:35;101273.88;;;19.14;72.53
42125;BME280;27787;44.594;11.046;2023-04-28T11:34:19;101277.44;;;19.15;72.99
42125;BME280;27787;44.594;11.046;2023-04-28T11:37:07;101272.09;;;19.15;72.64
42125;BME280;27787;44.594;11.046;2023-04-28T11:39:52;101260.56;;;19.10;72.84
42125;BME280;27787;44.594;11.046;2023-04-28T11:42:46;101254.50;;;19.02;71.75
42125;BME280;27787;44.594;11.046;2023-04-28T11:45:31;101257.13;;;19.05;69.24
42125;BME280;27787;44.594;11.046;2023-04-28T11:48:21;101259.78;;;19.05;68.88
42125;BME280;27787;44.594;11.046;2023-04-28T11:51:05;101255.31;;;19.05;66.03
42125;BME280;27787;44.594;11.046;2023-04-28T11:53:50;101254.41;;;19.06;65.76
42125;BME280;27787;44.594;11.046;2023-04-28T11:56:38;101254.13;;;19.20;68.74
42125;BME280;27787;44.594;11.046;2023-04-28T11:59:41;101249.59;;;19.24;68.65
42125;BME280;27787;44.594;11.046;2023-04-28T12:02:26;101244.31;;;19.21;67.75
42125;BME280;27787;44.594;11.046;2023-04-28T12:05:11;101248.56;;;19.31;68.97
42125;BME280;27787;44.594;11.046;2023-04-28T12:07:56;101242.13;;;19.38;68.41
42125;BME280;27787;44.594;11.046;2023-04-28T12:10:40;101234.06;;;19.39;68.86
42125;BME280;27787;44.594;11.046;2023-04-28T12:13:24;101234.00;;;19.44;68.17
42125;BME280;27787;44.594;11.046;2023-04-28T12:16:08;101240.22;;;19.44;60.26
42125;BME280;27787;44.594;11.046;2023-04-28T12:18:58;101240.03;;;19.54;55.46
42125;BME280;27787;44.594;11.046;2023-04-28T12:22:04;101228.69;;;19.42;54.98
42125;BME280;27787;44.594;11.046;2023-04-28T12:25:10;101226.91;;;19.40;54.35
42125;BME280;27787;44.594;11.046;2023-04-28T12:28:05;101225.00;;;19.47;56.90
42125;BME280;27787;44.594;11.046;2023-04-28T12:31:02;101216.78;;;19.57;62.90
42125;BME280;27787;44.594;11.046;2023-04-28T12:33:47;101213.19;;;19.58;64.33
42125;BME280;27787;44.594;11.046;2023-04-28T12:36:31;101214.88;;;19.62;64.68
42125;BME280;27787;44.594;11.046;2023-04-28T12:39:15;101204.09;;;19.64;62.58
42125;BME280;27787;44.594;11.046;2023-04-28T12:42:02;101198.72;;;19.65;62.35
42125;BME280;27787;44.594;11.046;2023-04-28T12:44:47;101192.44;;;19.68;60.50
42125;BME280;27787;44.594;11.046;2023-04-28T12:47:30;101194.16;;;19.70;57.48
42125;BME280;27787;44.594;11.046;2023-04-28T12:50:14;101186.03;;;19.73;55.23
42125;BME280;27787;44.594;11.046;2023-04-28T12:52:58;101189.41;;;19.82;55.63
42125;BME280;27787;44.594;11.046;2023-04-28T12:55:43;101186.41;;;19.95;56.09
42125;BME280;27787;44.594;11.046;2023-04-28T12:58:27;101177.22;;;20.04;56.47
42125;BME280;27787;44.594;11.046;2023-04-28T13:01:11;101172.56;;;20.12;52.39
42125;BME280;27787;44.594;11.046;2023-04-28T13:03:56;101175.78;;;20.26;49.47
42125;BME280;27787;44.594;11.046;2023-04-28T13:06:40;101175.41;;;20.40;47.43
42125;BME280;27787;44.594;11.046;2023-04-28T13:09:27;101172.63;;;20.46;48.69
42125;BME280;27787;44.594;11.046;2023-04-28T13:12:11;101167.03;;;20.54;50.36
42125;BME280;27787;44.594;11.046;2023-04-28T13:14:55;101171.56;;;20.52;42.77
42125;BME280;27787;44.594;11.046;2023-04-28T13:17:39;101155.56;;;20.49;42.06
42125;BME280;27787;44.594;11.046;2023-04-28T13:20:24;101157.91;;;20.61;42.71
42125;BME280;27787;44.594;11.046;2023-04-28T13:23:08;101146.88;;;20.72;44.17
42125;BME280;27787;44.594;11.046;2023-04-28T13:25:52;101148.50;;;20.77;45.22
42125;BME280;27787;44.594;11.046;2023-04-28T13:28:36;101148.28;;;20.85;45.44
42125;BME280;27787;44.594;11.046;2023-04-28T13:31:20;101135.50;;;20.93;45.59
42125;BME280;27787;44.594;11.046;2023-04-28T13:34:04;101132.88;;;20.91;45.76
42125;BME280;27787;44.594;11.046;2023-04-28T13:36:50;101123.78;;;20.96;45.88
42125;BME280;27787;44.594;11.046;2023-04-28T13:39:36;101119.88;;;21.07;46.28
42125;BME280;27787;44.594;11.046;2023-04-28T13:42:21;101103.31;;;21.23;46.85
42125;BME280;27787;44.594;11.046;2023-04-28T13:45:05;101094.81;;;21.38;47.15
42125;BME280;27787;44.594;11.046;2023-04-28T13:47:50;101089.84;;;21.52;47.31
42125;BME280;27787;44.594;11.046;2023-04-28T13:50:34;101084.03;;;21.66;47.79
42125;BME280;27787;44.594;11.046;2023-04-28T13:53:20;101086.31;;;21.78;47.94
42125;BME280;27787;44.594;11.046;2023-04-28T13:56:05;101085.94;;;21.89;48.17
42125;BME280;27787;44.594;11.046;2023-04-28T13:58:51;101075.84;;;21.95;47.79
42125;BME280;27787;44.594;11.046;2023-04-28T14:01:35;101081.69;;;22.08;47.98
42125;BME280;27787;44.594;11.046;2023-04-28T14:04:20;101073.97;;;22.24;48.45
42125;BME280;27787;44.594;11.046;2023-04-28T14:07:04;101069.09;;;22.35;48.85
42125;BME280;27787;44.594;11.046;2023-04-28T14:09:48;101071.38;;;22.46;48.96
42125;BME280;27787;44.594;11.046;2023-04-28T14:12:32;101079.19;;;22.53;48.33
42125;BME280;27787;44.594;11.046;2023-04-28T14:15:17;101077.25;;;22.57;47.45
42125;BME280;27787;44.594;11.046;2023-04-28T14:18:06;101071.69;;;22.61;47.33
42125;BME280;27787;44.594;11.046;2023-04-28T14:20:51;101065.84;;;22.74;47.41
42125;BME280;27787;44.594;11.046;2023-04-28T14:23:37;101072.66;;;22.84;47.95
42125;BME280;27787;44.594;11.046;2023-04-28T14:26:22;101060.16;;;22.83;48.00
42125;BME280;27787;44.594;11.046;2023-04-28T14:29:07;101054.84;;;22.80;48.16